PWSweather.com
Personal Weather Stations
Station Observations
KWAVA98665
Vancouver, WA 98665

Vancouver, WA 98665

Lat: 45.6827589, Lon: -122.63116100000002

Elevation: 262

Station Type: Davis VP2

http://www.bobsvp2wd.net

Latest ConditionsUpdated 9:15:11 PM PDT Friday, Jul 20, 2018
Currently Today's Max Today's Min Today's Average
Temperature 66.8°F19.3°C 75.6°F24.2°C 49.7°F9.8°C 61.6°F16.4°C
Dew Point 48.1°F8.9°C 51.8°F11.0°C 46.2°F7.9°C 48.4°F9.1°C
Winds 3.5 mph WNW5.6 kmh WNW 5.8 mph -9.3 kmh - - 2.6 mph 4.2 kmh
Wind Gusts 6.9 mph11.1 kmh 16.1 mph25.9 kmh - -
Humidity 51% 88% 40% 65%
Pressure 30.05 in1017.6 mb 30.17 in1021.7 mb 30.03 in1016.9 mb -
Hour Temp Dew Point Humidity Winds Wind Gusts Pressure Precip Precip Rate Daily Precip Total
09:15 PM 66.8°F19.3°C 48.1°F8.9°C 51% 3.5 mph WNW5.6 kmh WNW 6.9 mph11.1 kmh 30.05 in1017.6 mb - 0.00 in0.0 mm 0.00 in0.0 mm
08:45 PM 68.8°F20.4°C 48.9°F9.4°C 49% 3.5 mph NW5.6 kmh NW 9.2 mph14.8 kmh 30.04 in1017.3 mb - 0.00 in0.0 mm 0.00 in0.0 mm
08:30 PM 69.8°F21.0°C 49.2°F9.6°C 48% 3.5 mph NW5.6 kmh NW 6.9 mph11.1 kmh 30.04 in1017.3 mb - 0.00 in0.0 mm 0.00 in0.0 mm
08:00 PM 71.6°F22.0°C 50.3°F10.2°C 47% 3.5 mph WNW5.6 kmh WNW 10.4 mph16.7 kmh 30.03 in1016.9 mb - 0.00 in0.0 mm 0.00 in0.0 mm
06:45 PM 73.9°F23.3°C 51.8°F11.0°C 46% 5.8 mph WNW9.3 kmh WNW 12.7 mph20.4 kmh 30.03 in1016.9 mb - 0.00 in0.0 mm 0.00 in0.0 mm
06:00 PM 75.1°F23.9°C 51.1°F10.6°C 43% 4.6 mph WNW7.4 kmh WNW 11.5 mph18.5 kmh 30.04 in1017.3 mb - 0.00 in0.0 mm 0.00 in0.0 mm
04:30 PM 75.6°F24.2°C 49.6°F9.8°C 40% 4.6 mph WNW7.4 kmh WNW 6.9 mph11.1 kmh 30.06 in1017.9 mb - 0.00 in0.0 mm 0.00 in0.0 mm
04:15 PM 75.0°F23.9°C 49.1°F9.5°C 40% 4.6 mph NW7.4 kmh NW 9.2 mph14.8 kmh 30.06 in1017.9 mb - 0.00 in0.0 mm 0.00 in0.0 mm
04:00 PM 74.7°F23.7°C 48.8°F9.3°C 40% 4.6 mph WNW7.4 kmh WNW 9.2 mph14.8 kmh 30.07 in1018.3 mb - 0.00 in0.0 mm 0.00 in0.0 mm
03:00 PM 73.3°F22.9°C 48.2°F9.0°C 41% 5.8 mph N9.3 kmh N 16.1 mph25.9 kmh 30.08 in1018.6 mb - 0.00 in0.0 mm 0.00 in0.0 mm
02:45 PM 72.1°F22.3°C 48.3°F9.1°C 43% 4.6 mph NNW7.4 kmh NNW 11.5 mph18.5 kmh 30.09 in1019.0 mb - 0.00 in0.0 mm 0.00 in0.0 mm
02:00 PM 70.9°F21.6°C 49.0°F9.4°C 46% 4.6 mph NW7.4 kmh NW 11.5 mph18.5 kmh 30.11 in1019.6 mb - 0.00 in0.0 mm 0.00 in0.0 mm
01:45 PM 70.0°F21.1°C 48.3°F9.1°C 46% 4.6 mph NW7.4 kmh NW 11.5 mph18.5 kmh 30.11 in1019.6 mb - 0.00 in0.0 mm 0.00 in0.0 mm
01:30 PM 69.3°F20.7°C 48.2°F9.0°C 47% 4.6 mph NW7.4 kmh NW 10.4 mph16.7 kmh 30.11 in1019.6 mb - 0.00 in0.0 mm 0.00 in0.0 mm
01:15 PM 68.9°F20.5°C 49.0°F9.4°C 49% 4.6 mph NNW7.4 kmh NNW 11.5 mph18.5 kmh 30.12 in1020.0 mb - 0.00 in0.0 mm 0.00 in0.0 mm
01:00 PM 68.6°F20.3°C 49.2°F9.6°C 50% 3.5 mph NW5.6 kmh NW 11.5 mph18.5 kmh 30.12 in1020.0 mb - 0.00 in0.0 mm 0.00 in0.0 mm
12:30 PM 66.9°F19.4°C 49.7°F9.8°C 54% 3.5 mph WNW5.6 kmh WNW 5.8 mph9.3 kmh 30.13 in1020.3 mb - 0.00 in0.0 mm 0.00 in0.0 mm
12:15 PM 65.7°F18.7°C 49.6°F9.8°C 56% 3.5 mph WNW5.6 kmh WNW 5.8 mph9.3 kmh 30.14 in1020.7 mb - 0.00 in0.0 mm 0.00 in0.0 mm
12:00 PM 65.2°F18.4°C 50.0°F10.0°C 58% 3.5 mph NW5.6 kmh NW 8.1 mph13.0 kmh 30.14 in1020.7 mb - 0.00 in0.0 mm 0.00 in0.0 mm
11:45 AM 65.1°F18.4°C 50.0°F10.0°C 58% 2.3 mph NW3.7 kmh NW 8.1 mph13.0 kmh 30.14 in1020.7 mb - 0.00 in0.0 mm 0.00 in0.0 mm
11:30 AM 64.5°F18.1°C 49.4°F9.7°C 58% 2.3 mph WNW3.7 kmh WNW 6.9 mph11.1 kmh 30.14 in1020.7 mb - 0.00 in0.0 mm 0.00 in0.0 mm
11:15 AM 63.3°F17.4°C 49.2°F9.6°C 60% 3.5 mph NW5.6 kmh NW 9.2 mph14.8 kmh 30.14 in1020.7 mb - 0.00 in0.0 mm 0.00 in0.0 mm
10:45 AM 61.3°F16.3°C 49.1°F9.5°C 64% 3.5 mph NW5.6 kmh NW 4.6 mph7.4 kmh 30.15 in1021.0 mb - 0.00 in0.0 mm 0.00 in0.0 mm
10:00 AM 59.4°F15.2°C 48.5°F9.2°C 67% 3.5 mph NW5.6 kmh NW 9.2 mph14.8 kmh 30.15 in1021.0 mb - 0.00 in0.0 mm 0.00 in0.0 mm
09:45 AM 59.2°F15.1°C 47.9°F8.8°C 66% 3.5 mph NW5.6 kmh NW 8.1 mph13.0 kmh 30.16 in1021.3 mb - 0.00 in0.0 mm 0.00 in0.0 mm
08:30 AM 54.4°F12.4°C 49.0°F9.4°C 82% 2.3 mph W3.7 kmh W 5.8 mph9.3 kmh 30.17 in1021.7 mb - 0.00 in0.0 mm 0.00 in0.0 mm
08:00 AM 53.1°F11.7°C 48.7°F9.3°C 85% 1.2 mph NW1.9 kmh NW 3.5 mph5.6 kmh 30.17 in1021.7 mb - 0.00 in0.0 mm 0.00 in0.0 mm
07:45 AM 52.8°F11.6°C 48.5°F9.2°C 85% Calm Calm 3.5 mph5.6 kmh 30.16 in1021.3 mb - 0.00 in0.0 mm 0.00 in0.0 mm
07:30 AM 52.4°F11.3°C 48.0°F8.9°C 85% Calm Calm 2.3 mph3.7 kmh 30.16 in1021.3 mb - 0.00 in0.0 mm 0.00 in0.0 mm
07:00 AM 51.3°F10.7°C 47.5°F8.6°C 87% Calm Calm 1.2 mph1.9 kmh 30.16 in1021.3 mb - 0.00 in0.0 mm 0.00 in0.0 mm
06:45 AM 50.8°F10.4°C 47.4°F8.6°C 88% Calm Calm 1.2 mph1.9 kmh 30.15 in1021.0 mb - 0.00 in0.0 mm 0.00 in0.0 mm
06:30 AM 50.4°F10.2°C 47.0°F8.3°C 88% Calm Calm -- 30.15 in1021.0 mb - 0.00 in0.0 mm 0.00 in0.0 mm
06:15 AM 49.7°F9.8°C 46.3°F7.9°C 88% Calm Calm -- 30.15 in1021.0 mb - 0.00 in0.0 mm 0.00 in0.0 mm
05:45 AM 49.9°F9.9°C 46.2°F7.9°C 87% Calm Calm -- 30.15 in1021.0 mb - 0.00 in0.0 mm 0.00 in0.0 mm
05:30 AM 49.9°F9.9°C 46.4°F8.0°C 88% Calm Calm 1.2 mph1.9 kmh 30.15 in1021.0 mb - 0.00 in0.0 mm 0.00 in0.0 mm
04:45 AM 50.9°F10.5°C 46.5°F8.1°C 85% Calm Calm 1.2 mph1.9 kmh 30.15 in1021.0 mb - 0.00 in0.0 mm 0.00 in0.0 mm
04:30 AM 51.5°F10.8°C 46.8°F8.2°C 84% Calm Calm 1.2 mph1.9 kmh 30.16 in1021.3 mb - 0.00 in0.0 mm 0.00 in0.0 mm
04:15 AM 51.9°F11.1°C 47.2°F8.4°C 84% Calm Calm 2.3 mph3.7 kmh 30.16 in1021.3 mb - 0.00 in0.0 mm 0.00 in0.0 mm
04:00 AM 52.2°F11.2°C 47.2°F8.4°C 83% 1.2 mph WNW1.9 kmh WNW 3.5 mph5.6 kmh 30.15 in1021.0 mb - 0.00 in0.0 mm 0.00 in0.0 mm
03:30 AM 52.9°F11.6°C 47.3°F8.5°C 81% 2.3 mph NW3.7 kmh NW 3.5 mph5.6 kmh 30.14 in1020.7 mb - 0.00 in0.0 mm 0.00 in0.0 mm
01:45 AM 54.3°F12.4°C 47.2°F8.4°C 77% 1.2 mph NW1.9 kmh NW 5.8 mph9.3 kmh 30.13 in1020.3 mb - 0.00 in0.0 mm 0.00 in0.0 mm
01:30 AM 54.5°F12.5°C 47.5°F8.6°C 77% 1.2 mph NW1.9 kmh NW 9.2 mph14.8 kmh 30.13 in1020.3 mb - 0.00 in0.0 mm 0.00 in0.0 mm
01:15 AM 54.7°F12.6°C 47.3°F8.5°C 76% 1.2 mph NW1.9 kmh NW 9.2 mph14.8 kmh 30.13 in1020.3 mb - 0.00 in0.0 mm 0.00 in0.0 mm
12:30 AM 55.6°F13.1°C 47.8°F8.8°C 75% 3.5 mph NW5.6 kmh NW 4.6 mph7.4 kmh 30.12 in1020.0 mb - 0.00 in0.0 mm 0.00 in0.0 mm